sensor_id;sensor_type;location;lat;lon;timestamp;pressure;altitude;pressure_sealevel;temperature;humidity
34065;BME280;20339;49.754;20.158;2023-08-17T00:00:49;97015.33;;;23.19;55.77
34065;BME280;20339;49.754;20.158;2023-08-17T00:03:38;97014.47;;;23.15;55.69
34065;BME280;20339;49.754;20.158;2023-08-17T00:06:09;97011.09;;;23.08;55.66
34065;BME280;20339;49.754;20.158;2023-08-17T00:08:41;97007.07;;;23.06;55.60
34065;BME280;20339;49.754;20.158;2023-08-17T00:11:12;97008.58;;;23.04;55.21
34065;BME280;20339;49.754;20.158;2023-08-17T00:13:43;97006.63;;;23.10;54.72
34065;BME280;20339;49.754;20.158;2023-08-17T00:16:14;97006.69;;;23.19;54.57
34065;BME280;20339;49.754;20.158;2023-08-17T00:18:45;97006.83;;;23.22;54.37
34065;BME280;20339;49.754;20.158;2023-08-17T00:21:16;97008.85;;;23.25;54.21
34065;BME280;20339;49.754;20.158;2023-08-17T00:23:47;97005.27;;;23.24;54.23
34065;BME280;20339;49.754;20.158;2023-08-17T00:26:19;97004.93;;;23.26;53.70
34065;BME280;20339;49.754;20.158;2023-08-17T00:28:50;97006.25;;;23.30;53.84
34065;BME280;20339;49.754;20.158;2023-08-17T00:31:21;97008.84;;;23.32;53.68
34065;BME280;20339;49.754;20.158;2023-08-17T00:33:52;97006.88;;;23.30;53.68
34065;BME280;20339;49.754;20.158;2023-08-17T00:36:23;97007.24;;;23.29;53.55
34065;BME280;20339;49.754;20.158;2023-08-17T00:38:54;97006.62;;;23.26;53.88
34065;BME280;20339;49.754;20.158;2023-08-17T00:41:25;97005.98;;;23.18;54.06
34065;BME280;20339;49.754;20.158;2023-08-17T00:43:58;97001.40;;;23.14;53.98
34065;BME280;20339;49.754;20.158;2023-08-17T00:46:29;97006.71;;;23.14;54.20
34065;BME280;20339;49.754;20.158;2023-08-17T00:49:00;97003.73;;;23.08;54.16
34065;BME280;20339;49.754;20.158;2023-08-17T00:51:32;97004.66;;;23.11;53.19
34065;BME280;20339;49.754;20.158;2023-08-17T00:54:05;97005.00;;;23.26;52.70
34065;BME280;20339;49.754;20.158;2023-08-17T00:56:37;97005.41;;;23.30;52.57
34065;BME280;20339;49.754;20.158;2023-08-17T00:59:08;97004.21;;;23.32;52.33
34065;BME280;20339;49.754;20.158;2023-08-17T01:01:39;97003.23;;;23.36;51.97
34065;BME280;20339;49.754;20.158;2023-08-17T01:04:10;97001.88;;;23.41;51.60
34065;BME280;20339;49.754;20.158;2023-08-17T01:06:41;97003.50;;;23.45;51.69
34065;BME280;20339;49.754;20.158;2023-08-17T01:09:12;96997.84;;;23.48;51.33
34065;BME280;20339;49.754;20.158;2023-08-17T01:11:49;96995.39;;;23.51;51.21
34065;BME280;20339;49.754;20.158;2023-08-17T01:14:29;97000.13;;;23.52;51.29
34065;BME280;20339;49.754;20.158;2023-08-17T01:17:06;97003.98;;;23.52;51.31
34065;BME280;20339;49.754;20.158;2023-08-17T01:19:39;97006.52;;;23.51;51.41
34065;BME280;20339;49.754;20.158;2023-08-17T01:22:12;97006.15;;;23.50;51.76
34065;BME280;20339;49.754;20.158;2023-08-17T01:24:45;97001.06;;;23.47;51.98
34065;BME280;20339;49.754;20.158;2023-08-17T01:27:16;97004.76;;;23.42;51.85
34065;BME280;20339;49.754;20.158;2023-08-17T01:29:47;97006.00;;;23.39;52.19
34065;BME280;20339;49.754;20.158;2023-08-17T01:32:24;97006.19;;;23.34;52.58
34065;BME280;20339;49.754;20.158;2023-08-17T01:35:01;97010.38;;;23.28;53.10
34065;BME280;20339;49.754;20.158;2023-08-17T01:37:36;97016.47;;;23.24;53.42
34065;BME280;20339;49.754;20.158;2023-08-17T01:40:11;97024.68;;;23.19;54.08
34065;BME280;20339;49.754;20.158;2023-08-17T01:42:43;97030.17;;;23.12;54.73
34065;BME280;20339;49.754;20.158;2023-08-17T01:45:14;97029.21;;;23.05;54.67
34065;BME280;20339;49.754;20.158;2023-08-17T01:47:46;97037.36;;;22.99;54.80
34065;BME280;20339;49.754;20.158;2023-08-17T01:50:17;97032.91;;;22.94;55.06
34065;BME280;20339;49.754;20.158;2023-08-17T01:52:48;97028.83;;;22.86;55.12
34065;BME280;20339;49.754;20.158;2023-08-17T01:55:22;97026.35;;;22.83;55.67
34065;BME280;20339;49.754;20.158;2023-08-17T01:57:53;97020.16;;;22.80;55.83
34065;BME280;20339;49.754;20.158;2023-08-17T02:00:24;97016.52;;;22.77;55.16
34065;BME280;20339;49.754;20.158;2023-08-17T02:02:55;97013.20;;;22.80;54.66
34065;BME280;20339;49.754;20.158;2023-08-17T02:05:26;97008.76;;;22.87;54.50
34065;BME280;20339;49.754;20.158;2023-08-17T02:07:58;97011.81;;;22.92;54.09
34065;BME280;20339;49.754;20.158;2023-08-17T02:10:29;97018.81;;;22.96;54.21
34065;BME280;20339;49.754;20.158;2023-08-17T02:13:00;97020.17;;;22.98;54.81
34065;BME280;20339;49.754;20.158;2023-08-17T02:15:31;97020.33;;;22.93;55.57
34065;BME280;20339;49.754;20.158;2023-08-17T02:18:02;97021.81;;;22.87;56.08
34065;BME280;20339;49.754;20.158;2023-08-17T02:20:34;97023.95;;;22.80;56.34
34065;BME280;20339;49.754;20.158;2023-08-17T02:23:05;97020.27;;;22.76;56.79
34065;BME280;20339;49.754;20.158;2023-08-17T02:25:39;97021.65;;;22.72;57.32
34065;BME280;20339;49.754;20.158;2023-08-17T02:28:10;97026.03;;;22.68;57.77
34065;BME280;20339;49.754;20.158;2023-08-17T02:30:41;97021.69;;;22.63;58.23
34065;BME280;20339;49.754;20.158;2023-08-17T02:33:12;97020.08;;;22.51;58.75
34065;BME280;20339;49.754;20.158;2023-08-17T02:35:48;97025.95;;;22.34;58.81
34065;BME280;20339;49.754;20.158;2023-08-17T02:38:20;97026.85;;;22.27;59.04
34065;BME280;20339;49.754;20.158;2023-08-17T02:40:52;97028.00;;;22.24;59.11
34065;BME280;20339;49.754;20.158;2023-08-17T02:43:24;97033.89;;;22.17;59.52
34065;BME280;20339;49.754;20.158;2023-08-17T02:45:55;97036.69;;;22.12;59.82
34065;BME280;20339;49.754;20.158;2023-08-17T02:48:29;97035.63;;;22.03;60.17
34065;BME280;20339;49.754;20.158;2023-08-17T02:51:01;97030.22;;;21.98;60.48
34065;BME280;20339;49.754;20.158;2023-08-17T02:53:34;97036.85;;;21.95;61.09
34065;BME280;20339;49.754;20.158;2023-08-17T02:56:08;97046.02;;;21.95;61.34
34065;BME280;20339;49.754;20.158;2023-08-17T02:58:41;97044.52;;;21.94;61.49
34065;BME280;20339;49.754;20.158;2023-08-17T03:01:14;97044.11;;;21.85;61.73
34065;BME280;20339;49.754;20.158;2023-08-17T03:03:45;97052.09;;;21.76;62.30
34065;BME280;20339;49.754;20.158;2023-08-17T03:06:16;97057.79;;;21.76;62.48
34065;BME280;20339;49.754;20.158;2023-08-17T03:08:47;97059.33;;;21.68;62.47
34065;BME280;20339;49.754;20.158;2023-08-17T03:11:18;97060.37;;;21.59;62.70
34065;BME280;20339;49.754;20.158;2023-08-17T03:13:52;97060.73;;;21.54;62.73
34065;BME280;20339;49.754;20.158;2023-08-17T03:16:29;97059.36;;;21.47;62.65
34065;BME280;20339;49.754;20.158;2023-08-17T03:19:00;97062.27;;;21.41;63.25
34065;BME280;20339;49.754;20.158;2023-08-17T03:21:32;97065.34;;;21.33;63.56
34065;BME280;20339;49.754;20.158;2023-08-17T03:24:03;97060.25;;;21.24;63.83
34065;BME280;20339;49.754;20.158;2023-08-17T03:26:37;97060.41;;;21.23;64.07
34065;BME280;20339;49.754;20.158;2023-08-17T03:29:08;97061.54;;;21.19;64.29
34065;BME280;20339;49.754;20.158;2023-08-17T03:31:40;97061.78;;;21.20;64.96
34065;BME280;20339;49.754;20.158;2023-08-17T03:34:13;97066.54;;;21.12;65.05
34065;BME280;20339;49.754;20.158;2023-08-17T03:36:44;97070.86;;;21.01;64.83
34065;BME280;20339;49.754;20.158;2023-08-17T03:39:17;97071.29;;;20.95;65.01
34065;BME280;20339;49.754;20.158;2023-08-17T03:41:49;97075.16;;;20.92;65.15
34065;BME280;20339;49.754;20.158;2023-08-17T03:44:20;97074.36;;;20.91;65.22
34065;BME280;20339;49.754;20.158;2023-08-17T03:46:51;97077.58;;;20.97;65.83
34065;BME280;20339;49.754;20.158;2023-08-17T03:49:23;97080.52;;;21.04;66.17
34065;BME280;20339;49.754;20.158;2023-08-17T03:51:55;97081.17;;;21.08;66.48
34065;BME280;20339;49.754;20.158;2023-08-17T03:54:29;97080.17;;;20.98;66.72
34065;BME280;20339;49.754;20.158;2023-08-17T03:57:00;97080.75;;;20.84;66.93
34065;BME280;20339;49.754;20.158;2023-08-17T03:59:33;97081.71;;;20.73;67.22
34065;BME280;20339;49.754;20.158;2023-08-17T04:02:04;97077.56;;;20.69;67.47
34065;BME280;20339;49.754;20.158;2023-08-17T04:04:37;97078.17;;;20.76;68.04
34065;BME280;20339;49.754;20.158;2023-08-17T04:07:09;97073.70;;;20.81;68.55
34065;BME280;20339;49.754;20.158;2023-08-17T04:09:44;97073.86;;;20.85;68.65
34065;BME280;20339;49.754;20.158;2023-08-17T04:12:16;97077.21;;;20.90;68.87
34065;BME280;20339;49.754;20.158;2023-08-17T04:14:47;97082.52;;;20.95;69.05
34065;BME280;20339;49.754;20.158;2023-08-17T04:17:23;97081.03;;;20.95;68.80
34065;BME280;20339;49.754;20.158;2023-08-17T04:19:57;97081.23;;;20.89;68.86
34065;BME280;20339;49.754;20.158;2023-08-17T04:22:28;97082.86;;;20.81;69.12
34065;BME280;20339;49.754;20.158;2023-08-17T04:25:01;97085.46;;;20.78;69.37
34065;BME280;20339;49.754;20.158;2023-08-17T04:27:32;97087.29;;;20.70;69.33
34065;BME280;20339;49.754;20.158;2023-08-17T04:30:04;97089.57;;;20.63;69.15
34065;BME280;20339;49.754;20.158;2023-08-17T04:32:35;97087.52;;;20.59;69.15
34065;BME280;20339;49.754;20.158;2023-08-17T04:35:07;97086.30;;;20.55;69.53
34065;BME280;20339;49.754;20.158;2023-08-17T04:37:39;97086.95;;;20.50;69.50
34065;BME280;20339;49.754;20.158;2023-08-17T04:40:11;97087.06;;;20.46;69.44
34065;BME280;20339;49.754;20.158;2023-08-17T04:42:46;97084.66;;;20.48;69.33
34065;BME280;20339;49.754;20.158;2023-08-17T04:45:17;97087.10;;;20.54;69.27
34065;BME280;20339;49.754;20.158;2023-08-17T04:47:48;97092.77;;;20.59;69.47
34065;BME280;20339;49.754;20.158;2023-08-17T04:50:19;97095.60;;;20.68;70.10
34065;BME280;20339;49.754;20.158;2023-08-17T04:52:50;97097.92;;;20.72;70.12
34065;BME280;20339;49.754;20.158;2023-08-17T04:55:21;97094.40;;;20.67;70.40
34065;BME280;20339;49.754;20.158;2023-08-17T04:57:52;97097.02;;;20.62;70.79
34065;BME280;20339;49.754;20.158;2023-08-17T05:00:23;97102.75;;;20.65;71.13
34065;BME280;20339;49.754;20.158;2023-08-17T05:02:57;97102.70;;;20.70;71.28
34065;BME280;20339;49.754;20.158;2023-08-17T05:05:28;97099.60;;;20.64;71.05
34065;BME280;20339;49.754;20.158;2023-08-17T05:07:59;97097.77;;;20.55;71.31
34065;BME280;20339;49.754;20.158;2023-08-17T05:10:30;97100.14;;;20.53;71.45
34065;BME280;20339;49.754;20.158;2023-08-17T05:13:01;97097.98;;;20.56;71.76
34065;BME280;20339;49.754;20.158;2023-08-17T05:15:33;97095.64;;;20.69;72.12
34065;BME280;20339;49.754;20.158;2023-08-17T05:18:04;97091.59;;;20.96;72.52
34065;BME280;20339;49.754;20.158;2023-08-17T05:20:35;97095.13;;;21.17;72.29
34065;BME280;20339;49.754;20.158;2023-08-17T05:23:06;97097.80;;;21.27;72.30
34065;BME280;20339;49.754;20.158;2023-08-17T05:25:37;97091.98;;;21.36;72.16
34065;BME280;20339;49.754;20.158;2023-08-17T05:28:08;97088.92;;;21.37;72.18
34065;BME280;20339;49.754;20.158;2023-08-17T05:30:40;97083.10;;;21.42;72.25
34065;BME280;20339;49.754;20.158;2023-08-17T05:33:11;97079.98;;;21.51;72.63
34065;BME280;20339;49.754;20.158;2023-08-17T05:35:42;97081.86;;;21.56;72.83
34065;BME280;20339;49.754;20.158;2023-08-17T05:38:13;97087.00;;;21.65;73.18
34065;BME280;20339;49.754;20.158;2023-08-17T05:40:44;97087.72;;;21.71;72.97
34065;BME280;20339;49.754;20.158;2023-08-17T05:43:15;97091.39;;;21.75;72.78
34065;BME280;20339;49.754;20.158;2023-08-17T05:45:47;97089.05;;;21.82;72.63
34065;BME280;20339;49.754;20.158;2023-08-17T05:48:20;97090.08;;;21.95;72.67
34065;BME280;20339;49.754;20.158;2023-08-17T05:50:53;97089.02;;;22.11;72.65
34065;BME280;20339;49.754;20.158;2023-08-17T05:53:25;97086.16;;;22.32;72.87
34065;BME280;20339;49.754;20.158;2023-08-17T05:55:57;97087.20;;;22.55;73.15
34065;BME280;20339;49.754;20.158;2023-08-17T05:58:28;97089.62;;;22.98;73.93
34065;BME280;20339;49.754;20.158;2023-08-17T06:01:06;97096.58;;;23.38;72.80
34065;BME280;20339;49.754;20.158;2023-08-17T06:03:38;97096.53;;;23.55;70.98
34065;BME280;20339;49.754;20.158;2023-08-17T06:06:11;97098.77;;;23.54;70.63
34065;BME280;20339;49.754;20.158;2023-08-17T06:08:42;97097.30;;;23.60;70.67
34065;BME280;20339;49.754;20.158;2023-08-17T06:11:14;97096.30;;;23.74;71.07
34065;BME280;20339;49.754;20.158;2023-08-17T06:13:45;97097.95;;;24.16;72.07
34065;BME280;20339;49.754;20.158;2023-08-17T06:16:19;97096.91;;;24.91;71.46
34065;BME280;20339;49.754;20.158;2023-08-17T06:18:51;97094.71;;;25.69;70.77
34065;BME280;20339;49.754;20.158;2023-08-17T06:21:22;97094.15;;;26.32;68.57
34065;BME280;20339;49.754;20.158;2023-08-17T06:23:52;97090.77;;;26.79;66.79
34065;BME280;20339;49.754;20.158;2023-08-17T06:26:23;97091.85;;;27.07;64.49
34065;BME280;20339;49.754;20.158;2023-08-17T06:28:54;97089.46;;;27.16;63.36
34065;BME280;20339;49.754;20.158;2023-08-17T06:31:27;97089.41;;;27.29;61.65
34065;BME280;20339;49.754;20.158;2023-08-17T06:33:59;97086.17;;;27.32;60.21
34065;BME280;20339;49.754;20.158;2023-08-17T06:36:32;97087.22;;;27.54;60.18
34065;BME280;20339;49.754;20.158;2023-08-17T06:39:04;97082.59;;;28.03;59.47
34065;BME280;20339;49.754;20.158;2023-08-17T06:41:35;97088.46;;;28.36;58.59
34065;BME280;20339;49.754;20.158;2023-08-17T06:44:06;97086.51;;;28.68;57.67
34065;BME280;20339;49.754;20.158;2023-08-17T06:46:38;97085.89;;;28.91;57.14
34065;BME280;20339;49.754;20.158;2023-08-17T06:49:10;97085.00;;;29.15;56.76
34065;BME280;20339;49.754;20.158;2023-08-17T06:51:42;97084.09;;;29.40;56.07
34065;BME280;20339;49.754;20.158;2023-08-17T06:54:13;97080.29;;;29.47;54.82
34065;BME280;20339;49.754;20.158;2023-08-17T06:56:44;97082.15;;;29.60;54.71
34065;BME280;20339;49.754;20.158;2023-08-17T06:59:15;97086.12;;;29.84;54.04
34065;BME280;20339;49.754;20.158;2023-08-17T07:01:46;97082.15;;;29.76;53.08
34065;BME280;20339;49.754;20.158;2023-08-17T07:04:17;97080.97;;;29.82;53.11
34065;BME280;20339;49.754;20.158;2023-08-17T07:06:48;97082.42;;;30.09;52.98
34065;BME280;20339;49.754;20.158;2023-08-17T07:09:19;97081.74;;;30.31;52.58
34065;BME280;20339;49.754;20.158;2023-08-17T07:11:51;97079.08;;;30.33;52.08
34065;BME280;20339;49.754;20.158;2023-08-17T07:14:22;97086.39;;;30.19;51.41
34065;BME280;20339;49.754;20.158;2023-08-17T07:16:54;97081.48;;;29.96;51.39
34065;BME280;20339;49.754;20.158;2023-08-17T07:19:25;97083.84;;;29.93;51.46
34065;BME280;20339;49.754;20.158;2023-08-17T07:21:56;97082.36;;;29.83;51.94
34065;BME280;20339;49.754;20.158;2023-08-17T07:24:27;97083.25;;;29.66;51.32
34065;BME280;20339;49.754;20.158;2023-08-17T07:26:58;97081.59;;;29.34;51.67
34065;BME280;20339;49.754;20.158;2023-08-17T07:29:29;97087.16;;;29.00;51.94
34065;BME280;20339;49.754;20.158;2023-08-17T07:32:00;97080.16;;;28.83;52.12
34065;BME280;20339;49.754;20.158;2023-08-17T07:34:31;97083.27;;;28.83;52.90
34065;BME280;20339;49.754;20.158;2023-08-17T07:37:03;97086.68;;;28.97;52.85
34065;BME280;20339;49.754;20.158;2023-08-17T07:39:34;97088.39;;;28.96;52.43
34065;BME280;20339;49.754;20.158;2023-08-17T07:42:06;97091.52;;;28.90;52.45
34065;BME280;20339;49.754;20.158;2023-08-17T07:44:37;97093.67;;;28.86;52.63
34065;BME280;20339;49.754;20.158;2023-08-17T07:47:09;97096.52;;;28.80;52.24
34065;BME280;20339;49.754;20.158;2023-08-17T07:49:40;97095.73;;;28.76;52.88
34065;BME280;20339;49.754;20.158;2023-08-17T07:52:14;97093.16;;;28.79;52.87
34065;BME280;20339;49.754;20.158;2023-08-17T07:54:46;97094.17;;;28.74;53.16
34065;BME280;20339;49.754;20.158;2023-08-17T08:00:34;97088.52;;;29.15;53.32
34065;BME280;20339;49.754;20.158;2023-08-17T08:03:06;97088.54;;;29.31;52.73
34065;BME280;20339;49.754;20.158;2023-08-17T08:05:37;97083.54;;;29.40;53.64
34065;BME280;20339;49.754;20.158;2023-08-17T08:08:08;97084.27;;;29.51;53.45
34065;BME280;20339;49.754;20.158;2023-08-17T08:10:39;97081.23;;;29.60;52.81
34065;BME280;20339;49.754;20.158;2023-08-17T08:13:11;97079.66;;;29.63;52.62
34065;BME280;20339;49.754;20.158;2023-08-17T08:15:42;97080.67;;;29.66;52.04
34065;BME280;20339;49.754;20.158;2023-08-17T08:18:13;97078.25;;;29.70;52.11
34065;BME280;20339;49.754;20.158;2023-08-17T08:20:44;97073.55;;;29.79;52.08
34065;BME280;20339;49.754;20.158;2023-08-17T08:23:15;97071.97;;;29.89;52.56
34065;BME280;20339;49.754;20.158;2023-08-17T08:25:46;97067.58;;;29.95;51.29
34065;BME280;20339;49.754;20.158;2023-08-17T08:28:17;97063.33;;;29.77;51.22
34065;BME280;20339;49.754;20.158;2023-08-17T08:30:48;97062.47;;;29.77;51.79
34065;BME280;20339;49.754;20.158;2023-08-17T08:33:19;97064.95;;;29.86;51.01
34065;BME280;20339;49.754;20.158;2023-08-17T08:35:54;97064.54;;;29.96;51.38
34065;BME280;20339;49.754;20.158;2023-08-17T08:38:28;97056.48;;;30.14;51.54
34065;BME280;20339;49.754;20.158;2023-08-17T08:41:00;97053.03;;;30.36;51.74
34065;BME280;20339;49.754;20.158;2023-08-17T08:43:32;97052.23;;;30.57;51.83
34065;BME280;20339;49.754;20.158;2023-08-17T08:46:03;97052.81;;;30.74;51.41
34065;BME280;20339;49.754;20.158;2023-08-17T08:48:35;97050.61;;;30.88;51.06
34065;BME280;20339;49.754;20.158;2023-08-17T08:51:09;97052.11;;;30.82;50.65
34065;BME280;20339;49.754;20.158;2023-08-17T08:53:46;97051.83;;;30.63;49.79
34065;BME280;20339;49.754;20.158;2023-08-17T08:56:21;97053.89;;;30.35;49.22
34065;BME280;20339;49.754;20.158;2023-08-17T08:58:55;97058.43;;;30.12;49.60
34065;BME280;20339;49.754;20.158;2023-08-17T09:01:27;97059.23;;;30.03;49.88
34065;BME280;20339;49.754;20.158;2023-08-17T09:04:00;97060.11;;;29.89;50.13
34065;BME280;20339;49.754;20.158;2023-08-17T09:06:32;97062.98;;;29.83;50.71
34065;BME280;20339;49.754;20.158;2023-08-17T09:09:04;97070.75;;;29.72;50.69
34065;BME280;20339;49.754;20.158;2023-08-17T09:11:35;97070.52;;;29.66;51.50
34065;BME280;20339;49.754;20.158;2023-08-17T09:14:07;97063.02;;;29.69;51.82
34065;BME280;20339;49.754;20.158;2023-08-17T09:16:38;97063.10;;;29.70;52.36
34065;BME280;20339;49.754;20.158;2023-08-17T09:19:09;97058.56;;;29.76;52.69
34065;BME280;20339;49.754;20.158;2023-08-17T09:21:41;97055.27;;;29.84;52.68
34065;BME280;20339;49.754;20.158;2023-08-17T09:24:13;97054.31;;;29.94;53.22
34065;BME280;20339;49.754;20.158;2023-08-17T09:26:45;97052.48;;;30.09;53.34
34065;BME280;20339;49.754;20.158;2023-08-17T09:29:20;97056.55;;;30.11;53.02
34065;BME280;20339;49.754;20.158;2023-08-17T09:31:53;97057.17;;;30.17;52.94
34065;BME280;20339;49.754;20.158;2023-08-17T09:34:24;97058.04;;;30.08;51.99
34065;BME280;20339;49.754;20.158;2023-08-17T09:36:55;97062.86;;;29.74;51.43
34065;BME280;20339;49.754;20.158;2023-08-17T09:39:26;97061.85;;;29.39;51.87
34065;BME280;20339;49.754;20.158;2023-08-17T09:42:00;97062.23;;;29.22;52.06
34065;BME280;20339;49.754;20.158;2023-08-17T09:44:34;97066.90;;;29.11;52.33
34065;BME280;20339;49.754;20.158;2023-08-17T09:47:07;97073.07;;;28.85;52.18
34065;BME280;20339;49.754;20.158;2023-08-17T09:49:38;97071.72;;;28.53;52.01
34065;BME280;20339;49.754;20.158;2023-08-17T09:52:09;97068.11;;;28.30;52.61
34065;BME280;20339;49.754;20.158;2023-08-17T09:54:41;97062.79;;;28.26;53.70
34065;BME280;20339;49.754;20.158;2023-08-17T09:57:14;97061.44;;;28.24;54.10
34065;BME280;20339;49.754;20.158;2023-08-17T09:59:45;97057.70;;;28.23;54.30
34065;BME280;20339;49.754;20.158;2023-08-17T10:02:19;97054.48;;;28.18;54.74
34065;BME280;20339;49.754;20.158;2023-08-17T10:04:55;97054.29;;;28.12;55.02
34065;BME280;20339;49.754;20.158;2023-08-17T10:07:31;97052.56;;;28.05;55.34
34065;BME280;20339;49.754;20.158;2023-08-17T10:10:04;97058.83;;;28.00;55.73
34065;BME280;20339;49.754;20.158;2023-08-17T10:12:41;97057.39;;;27.93;56.02
34065;BME280;20339;49.754;20.158;2023-08-17T10:15:18;97056.81;;;27.87;56.12
34065;BME280;20339;49.754;20.158;2023-08-17T10:18:02;97063.41;;;27.73;56.13
34065;BME280;20339;49.754;20.158;2023-08-17T10:20:38;97066.83;;;27.63;56.55
34065;BME280;20339;49.754;20.158;2023-08-17T10:23:16;97073.06;;;27.63;57.19
34065;BME280;20339;49.754;20.158;2023-08-17T10:25:49;97072.39;;;27.66;57.15
34065;BME280;20339;49.754;20.158;2023-08-17T10:28:21;97068.61;;;27.71;57.36
34065;BME280;20339;49.754;20.158;2023-08-17T10:30:52;97068.52;;;27.79;57.49
34065;BME280;20339;49.754;20.158;2023-08-17T10:33:24;97070.09;;;27.84;57.67
34065;BME280;20339;49.754;20.158;2023-08-17T10:35:57;97071.34;;;27.86;57.70
34065;BME280;20339;49.754;20.158;2023-08-17T10:38:28;97073.66;;;27.81;57.64
34065;BME280;20339;49.754;20.158;2023-08-17T10:41:13;97079.48;;;27.78;57.48
34065;BME280;20339;49.754;20.158;2023-08-17T10:44:04;97082.77;;;27.78;57.49
34065;BME280;20339;49.754;20.158;2023-08-17T10:46:38;97080.86;;;27.74;57.64
34065;BME280;20339;49.754;20.158;2023-08-17T10:49:26;97084.46;;;27.76;58.08
34065;BME280;20339;49.754;20.158;2023-08-17T10:52:06;97087.06;;;27.82;58.31
34065;BME280;20339;49.754;20.158;2023-08-17T10:54:39;97091.09;;;27.89;58.50
34065;BME280;20339;49.754;20.158;2023-08-17T10:57:35;97094.67;;;27.91;58.34
34065;BME280;20339;49.754;20.158;2023-08-17T11:00:20;97096.33;;;27.95;58.35
34065;BME280;20339;49.754;20.158;2023-08-17T11:02:58;97090.39;;;28.03;58.73
34065;BME280;20339;49.754;20.158;2023-08-17T11:05:53;97090.89;;;28.10;58.88
34065;BME280;20339;49.754;20.158;2023-08-17T11:08:31;97089.04;;;28.14;58.24
34065;BME280;20339;49.754;20.158;2023-08-17T11:11:06;97085.61;;;28.25;58.55
34065;BME280;20339;49.754;20.158;2023-08-17T11:13:40;97090.19;;;28.34;58.02
34065;BME280;20339;49.754;20.158;2023-08-17T11:16:14;97090.52;;;28.36;57.53
34065;BME280;20339;49.754;20.158;2023-08-17T11:18:45;97089.41;;;28.33;57.42
34065;BME280;20339;49.754;20.158;2023-08-17T11:21:17;97093.58;;;28.28;56.84
34065;BME280;20339;49.754;20.158;2023-08-17T11:23:49;97096.57;;;28.21;57.14
34065;BME280;20339;49.754;20.158;2023-08-17T11:26:21;97101.04;;;28.13;56.56
34065;BME280;20339;49.754;20.158;2023-08-17T11:28:53;97100.05;;;27.92;56.00
34065;BME280;20339;49.754;20.158;2023-08-17T11:31:25;97095.52;;;27.68;55.84
34065;BME280;20339;49.754;20.158;2023-08-17T11:33:58;97096.27;;;27.49;55.99
34065;BME280;20339;49.754;20.158;2023-08-17T11:36:29;97113.08;;;27.31;55.95
34065;BME280;20339;49.754;20.158;2023-08-17T11:39:00;97128.56;;;27.01;55.44
34065;BME280;20339;49.754;20.158;2023-08-17T11:41:32;97134.02;;;26.39;54.86
34065;BME280;20339;49.754;20.158;2023-08-17T11:44:04;97153.68;;;25.74;54.60
34065;BME280;20339;49.754;20.158;2023-08-17T11:46:35;97172.45;;;25.17;54.96
34065;BME280;20339;49.754;20.158;2023-08-17T11:49:06;97184.47;;;24.67;55.67
34065;BME280;20339;49.754;20.158;2023-08-17T11:51:38;97185.77;;;24.41;56.35
34065;BME280;20339;49.754;20.158;2023-08-17T11:54:10;97182.63;;;24.16;57.07
34065;BME280;20339;49.754;20.158;2023-08-17T11:56:42;97176.59;;;23.62;58.41
34065;BME280;20339;49.754;20.158;2023-08-17T11:59:14;97179.67;;;22.94;60.23
34065;BME280;20339;49.754;20.158;2023-08-17T12:01:50;97168.48;;;22.44;61.89
34065;BME280;20339;49.754;20.158;2023-08-17T12:08:09;97200.73;;;21.73;64.61
34065;BME280;20339;49.754;20.158;2023-08-17T12:10:41;97202.29;;;21.64;65.32
34065;BME280;20339;49.754;20.158;2023-08-17T12:13:15;97193.41;;;21.56;65.64
34065;BME280;20339;49.754;20.158;2023-08-17T12:15:46;97189.18;;;21.48;66.16
34065;BME280;20339;49.754;20.158;2023-08-17T12:18:17;97192.86;;;21.40;66.70
34065;BME280;20339;49.754;20.158;2023-08-17T12:20:54;97185.09;;;21.33;66.93
34065;BME280;20339;49.754;20.158;2023-08-17T12:23:25;97174.92;;;21.29;67.19
34065;BME280;20339;49.754;20.158;2023-08-17T12:25:56;97176.83;;;21.26;67.68
34065;BME280;20339;49.754;20.158;2023-08-17T12:28:28;97167.70;;;21.24;67.89
34065;BME280;20339;49.754;20.158;2023-08-17T12:31:01;97158.66;;;21.25;68.03
34065;BME280;20339;49.754;20.158;2023-08-17T12:33:32;97150.73;;;21.38;68.48
34065;BME280;20339;49.754;20.158;2023-08-17T12:36:05;97139.43;;;21.49;68.08
34065;BME280;20339;49.754;20.158;2023-08-17T12:38:37;97137.04;;;21.58;68.71
34065;BME280;20339;49.754;20.158;2023-08-17T12:41:14;97140.20;;;21.77;68.84
34065;BME280;20339;49.754;20.158;2023-08-17T12:43:45;97130.48;;;21.92;69.07
34065;BME280;20339;49.754;20.158;2023-08-17T12:46:17;97126.27;;;22.03;69.30
34065;BME280;20339;49.754;20.158;2023-08-17T12:48:48;97123.38;;;22.14;69.31
34065;BME280;20339;49.754;20.158;2023-08-17T12:51:21;97114.31;;;22.21;69.13
34065;BME280;20339;49.754;20.158;2023-08-17T12:53:53;97105.42;;;22.25;69.41
34065;BME280;20339;49.754;20.158;2023-08-17T12:56:25;97093.35;;;22.32;69.44
34065;BME280;20339;49.754;20.158;2023-08-17T12:58:59;97095.34;;;22.26;69.43
34065;BME280;20339;49.754;20.158;2023-08-17T13:01:30;97096.46;;;22.24;70.23
34065;BME280;20339;49.754;20.158;2023-08-17T13:04:04;97095.83;;;22.33;70.72
34065;BME280;20339;49.754;20.158;2023-08-17T13:06:35;97093.29;;;22.46;71.03
34065;BME280;20339;49.754;20.158;2023-08-17T13:09:07;97091.50;;;22.62;71.30
34065;BME280;20339;49.754;20.158;2023-08-17T13:11:38;97085.80;;;22.71;70.86
34065;BME280;20339;49.754;20.158;2023-08-17T13:14:09;97079.29;;;22.70;70.65
34065;BME280;20339;49.754;20.158;2023-08-17T13:16:41;97071.18;;;22.62;69.85
34065;BME280;20339;49.754;20.158;2023-08-17T13:19:12;97075.42;;;22.50;69.78
34065;BME280;20339;49.754;20.158;2023-08-17T13:21:43;97074.59;;;22.51;70.75
34065;BME280;20339;49.754;20.158;2023-08-17T13:24:14;97062.97;;;22.52;70.62